Time;durP1;ratioP1;P1;durP2;ratioP2;P2;SDS_P1;SDS_P2;PMS_P1;PMS_P2;Temp;Humidity;BMP_temperature;BMP_pressure;BME280_temperature;BME280_humidity;BME280_pressure;Samples;Min_cycle;Max_cycle;Signal;HPM_P1;HPM_P2
2022/07/25 00:02:07;;;;;;;12.13;10.85;;;;;;;23.05;59.72;100977.34;4987901;28;20030;-79
2022/07/25 00:04:32;;;;;;;11.88;10.68;;;;;;;23.10;59.98;100990.78;4989620;28;20139;-78
2022/07/25 00:06:57;;;;;;;13.02;11.02;;;;;;;22.98;59.52;100979.19;4987764;28;20034;-79
2022/07/25 00:09:23;;;;;;;12.50;11.20;;;;;;;22.98;59.99;100984.47;4988737;28;20028;-79
2022/07/25 00:11:48;;;;;;;14.45;11.55;;;;;;;22.98;59.46;100982.63;4988755;28;20088;-78
2022/07/25 00:14:13;;;;;;;12.88;11.48;;;;;;;22.90;60.45;100974.09;4987972;28;20145;-78
2022/07/25 00:16:39;;;;;;;13.27;11.90;;;;;;;22.94;59.61;100973.50;5003804;28;20038;-79
2022/07/25 00:19:05;;;;;;;12.93;11.35;;;;;;;22.99;59.83;100972.88;4988116;28;20378;-79
2022/07/25 00:21:30;;;;;;;12.93;11.63;;;;;;;22.96;59.94;100970.66;4989323;28;20049;-79
2022/07/25 00:23:55;;;;;;;15.38;11.77;;;;;;;22.96;60.10;100957.41;4988863;28;20030;-79
2022/07/25 00:26:21;;;;;;;12.52;11.27;;;;;;;22.90;60.15;100963.53;5003337;28;20022;-80
2022/07/25 00:28:46;;;;;;;15.40;11.60;;;;;;;22.89;60.15;100961.91;4989241;28;20518;-78
2022/07/25 00:31:11;;;;;;;12.35;11.18;;;;;;;22.89;59.88;100956.63;4986902;28;20165;-79
2022/07/25 00:33:38;;;;;;;14.00;12.07;;;;;;;22.84;59.99;100949.25;4987176;28;20046;-79
2022/07/25 00:36:05;;;;;;;13.00;11.65;;;;;;;22.91;59.80;100951.94;4988063;28;20034;-79
2022/07/25 00:38:30;;;;;;;13.77;12.48;;;;;;;22.85;59.71;100942.13;4989144;28;20068;-79
2022/07/25 00:40:56;;;;;;;13.32;11.93;;;;;;;22.85;59.83;100944.78;4989015;28;20034;-79
2022/07/25 00:43:21;;;;;;;13.93;12.50;;;;;;;22.73;59.79;100939.28;5002931;28;20030;-79
2022/07/25 00:45:47;;;;;;;14.07;12.70;;;;;;;22.77;59.89;100933.38;4987921;28;20050;-79
2022/07/25 00:48:12;;;;;;;14.20;12.45;;;;;;;22.79;59.65;100925.25;4987224;28;20113;-79
2022/07/25 00:50:38;;;;;;;14.60;12.68;;;;;;;22.79;59.49;100925.25;4988439;28;20422;-78
2022/07/25 00:53:03;;;;;;;13.73;12.32;;;;;;;22.67;59.84;100922.38;4988136;28;20042;-79
2022/07/25 00:55:29;;;;;;;13.75;12.35;;;;;;;22.67;59.70;100917.09;4988842;28;20030;-79
2022/07/25 00:57:54;;;;;;;14.35;12.80;;;;;;;22.59;59.86;100909.34;4986638;28;20041;-78
2022/07/25 01:00:20;;;;;;;14.40;12.70;;;;;;;22.52;59.95;100911.97;4988477;28;20459;-79
2022/07/25 01:02:45;;;;;;;14.68;13.27;;;;;;;22.61;59.84;100907.34;4987809;28;20066;-79
2022/07/25 01:05:11;;;;;;;14.80;13.30;;;;;;;22.61;59.66;100898.59;4988606;28;20029;-79
2022/07/25 01:07:38;;;;;;;15.45;13.90;;;;;;;22.50;60.10;100900.00;4988342;28;20022;-78
2022/07/25 01:10:05;;;;;;;16.30;14.05;;;;;;;22.40;60.49;100894.28;4988165;28;20068;-79
2022/07/25 01:12:30;;;;;;;15.00;13.57;;;;;;;22.36;60.83;100887.75;5001928;28;20893;-79
2022/07/25 01:14:56;;;;;;;15.40;13.65;;;;;;;22.38;60.68;100885.75;4987091;28;20033;-80
2022/07/25 01:17:22;;;;;;;14.45;13.07;;;;;;;22.33;60.74;100883.72;4985978;28;20056;-80
2022/07/25 01:19:50;;;;;;;15.75;14.15;;;;;;;22.33;60.65;100877.63;4985767;28;20483;-81
2022/07/25 01:22:18;;;;;;;15.45;13.95;;;;;;;22.35;60.72;100880.84;4987355;28;20026;-79
2022/07/25 01:24:43;;;;;;;;;;;;;;;22.55;59.50;100876.41;5002065;28;20049;-79
2022/07/25 01:27:08;;;;;;;15.40;13.90;;;;;;;22.24;60.88;100869.84;4988186;28;20316;-79
2022/07/25 01:29:34;;;;;;;15.48;14.05;;;;;;;22.29;60.51;100868.44;4987550;28;20273;-79
2022/07/25 01:31:59;;;;;;;15.68;14.18;;;;;;;22.20;61.04;100858.09;4986405;28;20340;-80
2022/07/25 01:34:25;;;;;;;15.43;13.82;;;;;;;22.19;60.71;100867.03;4987136;28;20514;-81
2022/07/25 01:36:50;;;;;;;16.60;14.82;;;;;;;22.20;61.07;100868.66;4987469;28;20029;-80
2022/07/25 01:39:15;;;;;;;15.73;14.20;;;;;;;22.20;60.67;100868.66;4987500;28;20032;-79
2022/07/25 01:41:42;;;;;;;14.90;13.40;;;;;;;22.13;61.25;100862.53;4988363;28;20109;-79
2022/07/25 01:44:07;;;;;;;14.52;13.13;;;;;;;22.09;61.39;100856.00;4987110;28;21342;-78
2022/07/25 01:46:33;;;;;;;14.30;12.93;;;;;;;22.13;61.03;100849.31;4987552;28;20023;-79
2022/07/25 01:48:59;;;;;;;15.20;13.68;;;;;;;22.10;61.33;100857.66;4987427;28;20151;-79
2022/07/25 01:51:24;;;;;;;14.95;13.45;;;;;;;22.16;60.90;100845.47;4987207;28;20034;-79
2022/07/25 01:53:49;;;;;;;13.60;12.30;;;;;;;22.14;61.03;100848.31;4987514;28;20041;-80
2022/07/25 01:56:15;;;;;;;13.77;12.38;;;;;;;22.16;61.28;100851.56;4987333;28;20468;-79
2022/07/25 01:58:40;;;;;;;13.98;12.52;;;;;;;22.15;61.02;100844.66;4998674;28;20506;-81
2022/07/25 02:01:06;;;;;;;14.15;12.52;;;;;;;22.14;60.71;100845.69;5002996;28;20034;-78
2022/07/25 02:03:31;;;;;;;13.55;12.15;;;;;;;22.16;60.65;100840.19;5002489;28;20363;-78
2022/07/25 02:06:06;;;;;;;14.23;12.18;;;;;;;22.06;61.05;100831.81;4987266;28;20045;-79
2022/07/25 02:08:31;;;;;;;13.55;12.15;;;;;;;22.06;60.87;100829.16;4985969;28;20066;-78
2022/07/25 02:10:57;;;;;;;13.68;12.30;;;;;;;22.03;61.06;100825.09;4987685;28;20058;-77
2022/07/25 02:13:23;;;;;;;13.88;12.35;;;;;;;21.98;61.30;100824.88;4986732;28;20033;-78
2022/07/25 02:15:49;;;;;;;14.10;12.70;;;;;;;21.99;61.00;100818.59;5002086;28;20034;-78
2022/07/25 02:18:15;;;;;;;13.85;12.45;;;;;;;21.98;61.20;100816.97;4986208;28;20031;-78
2022/07/25 02:20:40;;;;;;;14.13;12.73;;;;;;;21.94;61.44;100815.72;4987089;28;20117;-78
2022/07/25 02:23:06;;;;;;;14.10;12.70;;;;;;;21.90;61.67;100817.13;4985447;28;20486;-79
2022/07/25 02:25:32;;;;;;;14.73;13.13;;;;;;;21.87;61.68;100806.97;4986441;28;20038;-79
2022/07/25 02:27:57;;;;;;;14.00;12.70;;;;;;;21.90;61.74;100819.78;4986777;28;20049;-80
2022/07/25 02:30:23;;;;;;;13.30;11.85;;;;;;;21.88;61.37;100805.97;4987004;28;20018;-80
2022/07/25 02:32:48;;;;;;;13.32;11.98;;;;;;;21.91;61.44;100800.31;4986401;28;20026;-79
2022/07/25 02:35:14;;;;;;;12.30;11.10;;;;;;;21.89;60.84;100797.03;4999678;28;20193;-78
2022/07/25 02:37:40;;;;;;;13.52;11.48;;;;;;;21.83;61.17;100806.56;4987067;28;20072;-79
2022/07/25 02:40:06;;;;;;;12.90;11.45;;;;;;;21.90;60.94;100806.56;4986595;28;20022;-79
2022/07/25 02:42:32;;;;;;;12.32;11.05;;;;;;;21.85;61.09;100804.56;4986755;28;20026;-79
2022/07/25 02:44:57;;;;;;;12.30;10.75;;;;;;;21.89;60.91;100791.75;4984841;28;20382;-79
2022/07/25 02:47:22;;;;;;;12.23;10.98;;;;;;;21.80;61.56;100787.69;4985986;28;20061;-80
2022/07/25 02:49:48;;;;;;;12.05;10.77;;;;;;;21.86;60.72;100786.88;4987172;28;20479;-78
2022/07/25 02:52:13;;;;;;;11.55;10.00;;;;;;;21.89;60.63;100797.03;4991140;28;20486;-79
2022/07/25 02:54:38;;;;;;;12.07;10.88;;;;;;;21.85;61.26;100785.22;4986928;28;20030;-79
2022/07/25 02:57:04;;;;;;;12.48;11.18;;;;;;;21.77;61.01;100782.78;4986258;28;20098;-79
2022/07/25 02:59:29;;;;;;;12.15;10.95;;;;;;;21.86;60.15;100786.88;4986998;28;20490;-80
2022/07/25 03:01:55;;;;;;;12.30;10.75;;;;;;;21.63;61.11;100790.69;5002128;28;20022;-80
2022/07/25 03:04:20;;;;;;;12.23;10.70;;;;;;;21.60;61.37;100788.41;4986711;28;20068;-79
2022/07/25 03:06:45;;;;;;;11.52;10.38;;;;;;;21.65;61.92;100791.28;4987268;28;20026;-79
2022/07/25 03:09:11;;;;;;;11.98;10.77;;;;;;;21.62;61.19;100780.28;4986456;28;20025;-79
2022/07/25 03:11:36;;;;;;;11.23;10.10;;;;;;;21.45;61.80;100785.94;4987593;28;20030;-79
2022/07/25 03:14:02;;;;;;;11.82;10.63;;;;;;;21.59;61.71;100781.53;4987581;28;20022;-79
2022/07/25 03:16:27;;;;;;;12.32;11.00;;;;;;;21.56;61.66;100771.34;4989013;28;20097;-80
2022/07/25 03:18:53;;;;;;;12.60;10.70;;;;;;;21.60;61.38;100771.78;4988867;28;20022;-79
2022/07/25 03:21:18;;;;;;;12.05;10.75;;;;;;;21.58;61.17;100766.69;4990023;28;20026;-79
2022/07/25 03:23:44;;;;;;;13.30;11.52;;;;;;;21.61;61.30;100766.28;4989999;28;20810;-79
2022/07/25 03:26:09;;;;;;;12.45;11.15;;;;;;;21.63;61.23;100756.38;4990398;28;20081;-79
2022/07/25 03:28:34;;;;;;;13.27;11.77;;;;;;;21.65;60.87;100764.06;4990226;28;20538;-78
2022/07/25 03:31:01;;;;;;;13.57;11.73;;;;;;;21.63;61.16;100758.19;4989764;28;20030;-79
2022/07/25 03:33:26;;;;;;;12.35;10.93;;;;;;;21.55;61.49;100753.88;4988930;28;20039;-79
2022/07/25 03:35:52;;;;;;;13.00;10.90;;;;;;;21.62;60.98;100754.75;4990358;28;20379;-79
2022/07/25 03:38:17;;;;;;;14.07;11.82;;;;;;;21.59;61.32;100765.69;4989764;28;20050;-79
2022/07/25 03:40:43;;;;;;;12.75;11.45;;;;;;;21.58;61.53;100769.34;4992136;28;20034;-78
2022/07/25 03:43:08;;;;;;;13.60;12.32;;;;;;;21.51;61.90;100760.59;4987917;28;20026;-78
2022/07/25 03:45:34;;;;;;;12.63;11.43;;;;;;;21.53;61.25;100763.84;4989593;28;20482;-79
2022/07/25 03:47:59;;;;;;;12.85;11.52;;;;;;;21.50;62.10;100772.13;4987862;28;20446;-79
2022/07/25 03:50:25;;;;;;;13.23;11.25;;;;;;;21.52;61.60;100770.13;4988842;28;20026;-78
2022/07/25 03:52:50;;;;;;;13.20;11.68;;;;;;;21.54;61.15;100757.53;4988131;28;20018;-79
2022/07/25 03:55:15;;;;;;;12.60;11.40;;;;;;;21.50;62.42;100758.13;4989214;28;20030;-78
2022/07/25 03:57:41;;;;;;;12.80;11.55;;;;;;;21.47;62.22;100748.81;4989370;28;20462;-78
2022/07/25 04:00:08;;;;;;;13.55;12.13;;;;;;;21.52;61.96;100742.94;4988892;28;20081;-78
2022/07/25 04:02:36;;;;;;;14.30;12.48;;;;;;;21.53;61.63;100750.66;4987299;28;20022;-79
2022/07/25 04:05:01;;;;;;;13.23;11.93;;;;;;;21.48;62.16;100742.50;4988915;28;20018;-79
2022/07/25 04:07:27;;;;;;;13.50;11.45;;;;;;;21.51;62.13;100747.41;4987447;28;20038;-79
2022/07/25 04:09:52;;;;;;;12.68;11.30;;;;;;;21.50;61.44;100740.47;4989364;28;20102;-78
2022/07/25 04:12:18;;;;;;;13.50;11.57;;;;;;;21.48;61.67;100737.22;4988672;28;20128;-78
2022/07/25 04:14:43;;;;;;;12.43;11.13;;;;;;;21.50;61.53;100729.09;4985837;28;20117;-78
2022/07/25 04:17:08;;;;;;;12.00;10.82;;;;;;;21.52;61.32;100732.38;4979883;28;20026;-78
2022/07/25 04:19:34;;;;;;;11.98;10.77;;;;;;;21.49;61.40;100741.50;4989283;28;20026;-78
2022/07/25 04:21:59;;;;;;;12.02;10.82;;;;;;;21.48;61.30;100731.94;4989468;28;20034;-78
2022/07/25 04:24:25;;;;;;;12.52;11.30;;;;;;;21.42;61.46;100732.75;4988507;28;20026;-78
2022/07/25 04:26:50;;;;;;;12.15;10.90;;;;;;;21.35;61.57;100734.56;4987930;28;21777;-78
2022/07/25 04:29:15;;;;;;;12.38;11.07;;;;;;;21.42;61.63;100727.47;5002793;28;20030;-78
2022/07/25 04:31:41;;;;;;;13.85;10.95;;;;;;;21.43;61.64;100729.09;4988846;28;20050;-78
2022/07/25 04:34:06;;;;;;;12.70;11.43;;;;;;;21.36;61.82;100746.72;4989517;28;20061;-79
2022/07/25 04:36:32;;;;;;;12.85;11.55;;;;;;;21.30;62.96;100739.59;4987295;28;20113;-79
2022/07/25 04:38:57;;;;;;;12.90;11.70;;;;;;;21.37;62.55;100735.16;4988303;28;20041;-78
2022/07/25 04:41:22;;;;;;;13.70;12.23;;;;;;;21.36;61.81;100731.72;4988540;28;20022;-79
2022/07/25 04:43:48;;;;;;;13.95;12.60;;;;;;;21.35;61.89;100731.91;4988817;28;20038;-79
2022/07/25 04:46:20;;;;;;;13.15;11.85;;;;;;;21.20;63.23;100743.38;4988364;28;20459;-78
2022/07/25 04:48:45;;;;;;;15.15;12.20;;;;;;;21.31;63.19;100726.22;5003742;28;20467;-79
2022/07/25 04:51:11;;;;;;;13.57;11.98;;;;;;;21.25;63.44;100742.00;4988919;28;20065;-79
2022/07/25 04:53:36;;;;;;;13.85;11.98;;;;;;;21.36;62.39;100738.81;4987948;28;20122;-79
2022/07/25 04:56:01;;;;;;;13.20;11.00;;;;;;;21.32;62.76;100737.56;4988067;28;20054;-79
2022/07/25 04:58:27;;;;;;;11.95;10.75;;;;;;;21.31;62.86;100730.69;4982826;28;20089;-79
2022/07/25 05:00:52;;;;;;;13.77;11.27;;;;;;;21.41;62.04;100725.84;4983075;28;20109;-79
2022/07/25 05:03:17;;;;;;;12.80;11.20;;;;;;;21.43;61.58;100718.53;4987027;28;20034;-78
2022/07/25 05:05:43;;;;;;;12.60;11.05;;;;;;;21.44;61.35;100725.44;4987275;28;20041;-79
2022/07/25 05:08:08;;;;;;;12.18;10.88;;;;;;;21.47;61.66;100722.41;4985623;28;20026;-79
2022/07/25 05:10:33;;;;;;;12.68;11.20;;;;;;;21.38;61.92;100720.94;4986852;28;20034;-79
2022/07/25 05:12:59;;;;;;;12.93;11.60;;;;;;;21.36;62.09;100717.72;4986874;28;20040;-78
2022/07/25 05:15:24;;;;;;;13.57;10.70;;;;;;;21.48;61.65;100726.66;4987255;28;20569;-78
2022/07/25 05:17:50;;;;;;;11.90;10.55;;;;;;;21.45;61.95;100716.53;4987053;28;20076;-79
2022/07/25 05:20:16;;;;;;;11.63;10.43;;;;;;;21.42;62.06;100722.19;4987090;28;20026;-79
2022/07/25 05:22:41;;;;;;;12.88;11.10;;;;;;;21.46;61.85;100718.16;4992176;28;20026;-79
2022/07/25 05:25:09;;;;;;;11.43;10.23;;;;;;;21.43;62.38;100729.09;4985606;28;20027;-79
2022/07/25 05:27:35;;;;;;;12.40;10.13;;;;;;;21.55;61.72;100721.41;4986961;28;20037;-78
2022/07/25 05:30:00;;;;;;;11.25;10.00;;;;;;;21.55;61.73;100716.94;4988035;28;20038;-81
2022/07/25 05:32:25;;;;;;;11.93;10.02;;;;;;;21.60;61.30;100714.53;4987739;28;20149;-80
2022/07/25 05:34:51;;;;;;;12.20;10.18;;;;;;;21.59;61.57;100722.63;4986463;28;20054;-79
2022/07/25 05:37:16;;;;;;;10.95;9.75;;;;;;;21.64;61.16;100721.03;4986860;28;20061;-80
2022/07/25 05:39:42;;;;;;;12.65;9.93;;;;;;;21.65;61.36;100721.84;4985998;28;20026;-79
2022/07/25 05:42:07;;;;;;;11.23;10.02;;;;;;;21.55;62.11;100711.66;4986434;28;20463;-79
2022/07/25 05:44:33;;;;;;;11.30;9.57;;;;;;;21.71;61.58;100706.00;4987182;28;20037;-79
2022/07/25 05:46:58;;;;;;;11.23;10.10;;;;;;;21.67;61.71;100710.06;4985986;28;20036;-81
2022/07/25 05:49:24;;;;;;;10.98;9.63;;;;;;;21.62;62.32;100717.78;4986786;28;20033;-80
2022/07/25 05:51:49;;;;;;;13.13;10.00;;;;;;;21.72;62.21;100723.47;4987843;28;20030;-80
2022/07/25 05:54:15;;;;;;;11.15;9.95;;;;;;;21.60;62.44;100727.72;4986534;28;20054;-80
2022/07/25 05:56:40;;;;;;;11.88;10.68;;;;;;;21.62;62.57;100728.34;4984585;28;20019;-79
2022/07/25 05:59:05;;;;;;;11.40;10.30;;;;;;;21.61;62.87;100729.34;4986030;28;20214;-79
2022/07/25 06:01:31;;;;;;;12.07;10.82;;;;;;;21.59;63.44;100731.38;4985305;28;20026;-79
2022/07/25 06:03:56;;;;;;;12.23;10.68;;;;;;;21.61;63.58;100729.34;4986996;28;20023;-79
2022/07/25 06:06:22;;;;;;;12.85;11.23;;;;;;;21.57;63.92;100729.97;4985501;28;20489;-79
2022/07/25 06:08:47;;;;;;;12.82;11.52;;;;;;;21.55;64.79;100732.78;4987375;28;20482;-79
2022/07/25 06:11:12;;;;;;;12.30;11.10;;;;;;;21.66;64.41;100739.31;4986628;28;20036;-79
2022/07/25 06:13:38;;;;;;;14.07;12.68;;;;;;;21.56;64.60;100734.41;4986830;28;20101;-79
2022/07/25 06:16:03;;;;;;;13.82;12.52;;;;;;;21.67;64.36;100741.72;4986369;28;20360;-79
2022/07/25 06:18:29;;;;;;;13.77;12.38;;;;;;;21.70;64.97;100751.91;4986288;28;20034;-79
2022/07/25 06:20:55;;;;;;;14.40;13.00;;;;;;;21.71;64.83;100753.53;4987208;28;20422;-79
2022/07/25 06:23:20;;;;;;;14.48;13.07;;;;;;;21.80;64.54;100750.72;4986740;28;20026;-80
2022/07/25 06:25:46;;;;;;;15.38;13.40;;;;;;;21.81;64.72;100757.63;4986304;28;20022;-79
2022/07/25 06:28:13;;;;;;;14.07;12.68;;;;;;;21.85;64.28;100757.03;4984026;28;20033;-79
2022/07/25 06:30:40;;;;;;;15.38;12.35;;;;;;;21.94;64.86;100752.34;4978703;28;20027;-79
2022/07/25 06:33:05;;;;;;;14.13;12.32;;;;;;;21.99;64.83;100755.19;4981303;28;20034;-79
2022/07/25 06:35:31;;;;;;;12.98;11.63;;;;;;;21.96;64.79;100750.31;4977431;28;20056;-80
2022/07/25 06:37:56;;;;;;;12.82;11.60;;;;;;;21.97;65.00;100751.97;4985322;28;20058;-80
2022/07/25 06:40:21;;;;;;;17.08;10.73;;;;;;;21.93;64.63;100756.00;4986365;28;20065;-80
2022/07/25 06:42:47;;;;;;;11.48;10.30;;;;;;;21.92;64.32;100764.94;4985512;28;20065;-80
2022/07/25 06:45:14;;;;;;;12.63;10.85;;;;;;;22.00;64.24;100757.63;4986783;28;20087;-81
2022/07/25 06:47:41;;;;;;;10.73;9.52;;;;;;;21.91;64.65;100758.03;4987345;28;20033;-79
2022/07/25 06:50:09;;;;;;;12.10;9.48;;;;;;;21.92;64.59;100764.94;4990586;28;20030;-80
2022/07/25 06:52:35;;;;;;;10.73;9.50;;;;;;;21.97;64.64;100767.81;4988822;28;20033;-81
2022/07/25 06:55:03;;;;;;;11.18;9.40;;;;;;;22.07;64.72;100757.63;4990620;28;20398;-80
2022/07/25 06:57:29;;;;;;;11.25;9.40;;;;;;;22.11;64.56;100753.63;4990478;28;20030;-82
2022/07/25 06:59:54;;;;;;;10.20;8.35;;;;;;;22.18;64.86;100751.78;5005649;28;20037;-81
2022/07/25 07:02:20;;;;;;;10.57;8.90;;;;;;;22.31;65.15;100745.69;5005105;28;20041;-80
2022/07/25 07:04:45;;;;;;;11.27;8.30;;;;;;;22.39;64.06;100747.31;4990478;28;20049;-79
2022/07/25 07:07:12;;;;;;;9.63;7.40;;;;;;;22.34;64.48;100747.13;4989944;28;20033;-79
2022/07/25 07:09:37;;;;;;;8.98;8.05;;;;;;;22.25;65.16;100738.56;4988995;28;20561;-78
2022/07/25 07:12:03;;;;;;;9.02;8.05;;;;;;;22.24;64.52;100743.03;4989883;28;20037;-78
2022/07/25 07:14:28;;;;;;;10.23;7.40;;;;;;;22.23;64.63;100754.63;4990068;28;20033;-78
2022/07/25 07:16:53;;;;;;;11.50;6.95;;;;;;;22.31;64.19;100752.78;4990183;28;20472;-79
2022/07/25 07:19:20;;;;;;;8.40;6.63;;;;;;;22.35;63.28;100754.00;4990494;28;20037;-78
2022/07/25 07:21:45;;;;;;;7.40;5.82;;;;;;;22.38;63.75;100748.34;4990001;28;20034;-80
2022/07/25 07:24:11;;;;;;;6.82;5.97;;;;;;;22.48;63.49;100738.13;4989390;28;20040;-78
2022/07/25 07:26:36;;;;;;;7.47;5.72;;;;;;;22.48;62.86;100738.13;4990469;28;20022;-79
2022/07/25 07:29:02;;;;;;;6.75;5.03;;;;;;;22.62;62.91;100746.88;4989687;28;20030;-79
2022/07/25 07:31:28;;;;;;;6.90;5.32;;;;;;;22.71;63.01;100754.41;4989900;28;20034;-80
2022/07/25 07:33:53;;;;;;;8.05;5.03;;;;;;;22.68;60.86;100733.66;4989834;28;20122;-80
2022/07/25 07:36:19;;;;;;;6.10;4.53;;;;;;;22.90;62.58;100744.00;4989213;28;20030;-78
2022/07/25 07:38:45;;;;;;;6.47;4.40;;;;;;;22.94;60.79;100742.53;4989191;28;20034;-79
2022/07/25 07:41:10;;;;;;;6.07;3.78;;;;;;;22.90;60.46;100751.94;4989559;28;20433;-79
2022/07/25 07:43:36;;;;;;;5.80;3.35;;;;;;;22.86;59.52;100750.69;4993498;28;20360;-78
2022/07/25 07:46:01;;;;;;;5.63;2.53;;;;;;;22.78;59.70;100746.44;4988092;28;20533;-79
2022/07/25 07:48:28;;;;;;;6.15;2.38;;;;;;;22.79;59.33;100756.00;4989520;28;20034;-79
2022/07/25 07:50:53;;;;;;;3.55;1.88;;;;;;;22.80;59.69;100747.03;4988574;28;20022;-79
2022/07/25 07:53:19;;;;;;;4.25;1.90;;;;;;;22.84;59.62;100755.38;4988846;28;20034;-79
2022/07/25 07:55:45;;;;;;;4.32;2.05;;;;;;;22.82;60.05;100758.22;4988655;28;20114;-79
2022/07/25 07:58:14;;;;;;;6.38;2.20;;;;;;;22.86;60.32;100761.25;4988365;28;20112;-79
2022/07/25 08:00:40;;;;;;;4.75;2.10;;;;;;;22.69;60.88;100767.00;4989827;28;20080;-78
2022/07/25 08:03:07;;;;;;;4.18;1.90;;;;;;;22.73;61.36;100767.41;4981560;28;20049;-81
2022/07/25 08:05:36;;;;;;;4.50;1.83;;;;;;;22.83;61.23;100772.28;4985987;28;20021;-79
2022/07/25 08:08:01;;;;;;;5.90;1.95;;;;;;;22.82;61.07;100760.03;4985678;28;20041;-79
2022/07/25 08:10:30;;;;;;;7.07;2.00;;;;;;;22.74;61.38;100775.13;4984259;28;20035;-78
2022/07/25 08:12:56;;;;;;;5.40;1.50;;;;;;;22.72;62.63;100761.31;4980682;28;20088;-79
2022/07/25 08:15:22;;;;;;;3.35;1.77;;;;;;;22.82;63.21;100768.78;4986364;28;20030;-79
2022/07/25 08:17:49;;;;;;;3.55;1.73;;;;;;;22.97;62.47;100779.16;4988539;28;20038;-80
2022/07/25 08:20:19;;;;;;;4.57;1.77;;;;;;;22.96;63.59;100766.97;4989319;28;20037;-79
2022/07/25 08:22:46;;;;;;;4.40;1.60;;;;;;;23.13;63.40;100773.44;4988758;28;20121;-79
2022/07/25 08:25:15;;;;;;;5.03;1.60;;;;;;;23.17;62.94;100769.34;4988780;28;20022;-78
2022/07/25 08:27:40;;;;;;;5.70;1.83;;;;;;;23.26;63.94;100757.50;4988225;28;20369;-80
2022/07/25 08:30:07;;;;;;;4.88;1.48;;;;;;;23.40;63.28;100773.31;4989047;28;20033;-80
2022/07/25 08:32:33;;;;;;;4.32;1.67;;;;;;;23.47;62.75;100776.75;5003377;28;20037;-79
2022/07/25 08:35:00;;;;;;;7.30;1.77;;;;;;;23.38;63.28;100770.88;4987897;28;20050;-79
2022/07/25 08:37:26;;;;;;;3.95;1.52;;;;;;;23.52;63.93;100782.22;4987908;28;20030;-79
2022/07/25 08:39:52;;;;;;;5.20;1.40;;;;;;;23.59;62.89;100772.41;4988746;28;20069;-80
2022/07/25 08:42:20;;;;;;;4.20;1.48;;;;;;;23.56;62.88;100778.13;4986963;28;20038;-79
2022/07/25 08:44:58;;;;;;;5.43;1.50;;;;;;;23.59;62.50;100764.47;4987401;28;20058;-78
2022/07/25 08:47:24;;;;;;;;;;;;;;;23.80;62.10;100777.41;4987923;28;20029;-78
2022/07/25 08:49:50;;;;;;;4.55;1.35;;;;;;;23.47;62.46;100768.81;4987390;28;20394;-79
2022/07/25 08:52:18;;;;;;;5.03;1.30;;;;;;;23.47;62.94;100785.50;4987388;28;20026;-80
2022/07/25 08:54:46;;;;;;;6.40;1.48;;;;;;;23.42;62.98;100780.03;4991383;28;20371;-79
2022/07/25 08:57:12;;;;;;;4.38;1.35;;;;;;;23.58;62.47;100786.69;4986125;28;20128;-79
2022/07/25 08:59:37;;;;;;;4.40;1.40;;;;;;;23.58;62.64;100787.50;4987972;28;20582;-80
2022/07/25 09:02:05;;;;;;;5.40;1.40;;;;;;;23.43;61.99;100788.78;4988545;28;20049;-80
2022/07/25 09:04:33;;;;;;;4.90;1.30;;;;;;;23.54;61.63;100788.13;4987233;28;20037;-81
2022/07/25 09:07:00;;;;;;;;;;;;;;;23.75;61.59;100798.44;4986514;28;20037;-83
2022/07/25 09:09:34;;;;;;;5.28;1.73;;;;;;;23.46;62.88;100801.59;4986106;28;20299;-81
2022/07/25 09:12:00;;;;;;;5.50;1.67;;;;;;;23.42;62.48;100789.81;4987342;28;20022;-82
2022/07/25 09:14:28;;;;;;;3.88;1.50;;;;;;;23.56;61.68;100794.00;4993477;28;20027;-80
2022/07/25 09:16:54;;;;;;;4.65;1.67;;;;;;;23.61;61.89;100796.84;4986303;28;20015;-80
2022/07/25 09:19:22;;;;;;;5.00;1.70;;;;;;;23.53;61.75;100799.72;5002502;28;20428;-81
2022/07/25 09:22:17;;;;;;;4.75;1.63;;;;;;;23.53;62.03;100803.19;4984838;28;20077;-80
2022/07/25 09:24:45;;;;;;;6.55;1.58;;;;;;;23.48;63.09;100803.00;4991268;28;20034;-81
2022/07/25 09:27:11;;;;;;;4.28;1.70;;;;;;;23.58;62.82;100803.38;4987107;28;20045;-81
2022/07/25 09:29:38;;;;;;;5.53;1.70;;;;;;;23.61;61.38;100803.97;4987086;28;20399;-79
2022/07/25 09:32:20;;;;;;;4.72;1.60;;;;;;;23.80;62.80;100795.16;4984318;28;20031;-82
2022/07/25 09:34:48;;;;;;;4.07;1.58;;;;;;;24.02;61.90;100803.56;4986307;28;20034;-80
2022/07/25 09:37:15;;;;;;;5.05;1.65;;;;;;;24.22;61.33;100804.22;4987763;28;20469;-80
2022/07/25 09:39:46;;;;;;;4.60;1.83;;;;;;;24.43;61.71;100816.34;4987173;28;20022;-81
2022/07/25 09:42:21;;;;;;;5.75;1.90;;;;;;;24.40;60.90;100815.94;4985742;28;20327;-79
2022/07/25 09:45:16;;;;;;;4.90;1.83;;;;;;;24.47;59.91;100814.88;4987075;28;20441;-81
2022/07/25 09:47:59;;;;;;;6.60;2.00;;;;;;;24.59;59.85;100809.66;4981524;28;20160;-81
2022/07/25 09:50:27;;;;;;;6.93;2.10;;;;;;;24.54;59.31;100810.31;4986126;28;20034;-79
2022/07/25 09:52:55;;;;;;;6.25;1.95;;;;;;;24.81;61.00;100804.75;5000996;28;20475;-81
2022/07/25 09:55:21;;;;;;;5.47;2.00;;;;;;;24.80;59.02;100801.31;4982566;28;20445;-82
2022/07/25 09:57:48;;;;;;;6.55;2.10;;;;;;;24.86;58.00;100811.03;4987046;28;20415;-80
2022/07/25 10:00:17;;;;;;;4.80;2.00;;;;;;;24.93;55.88;100812.81;4986613;28;20356;-81
2022/07/25 10:03:00;;;;;;;5.93;2.22;;;;;;;24.95;55.57;100818.72;4984452;28;20080;-79
2022/07/25 10:05:57;;;;;;;5.72;2.00;;;;;;;24.87;55.63;100827.75;4986909;28;20114;-79
2022/07/25 10:08:23;;;;;;;5.13;1.90;;;;;;;24.82;55.94;100825.75;4984956;28;20046;-80
2022/07/25 10:10:48;;;;;;;4.90;1.90;;;;;;;24.96;55.78;100831.75;5001120;28;20073;-80
2022/07/25 10:13:16;;;;;;;5.22;2.03;;;;;;;24.97;54.12;100837.88;4987000;28;20073;-80
2022/07/25 10:15:49;;;;;;;3.58;1.33;;;;;;;24.89;50.80;100845.09;4986383;28;20097;-80
2022/07/25 10:18:20;;;;;;;5.18;1.40;;;;;;;24.87;51.82;100839.19;5000681;28;20025;-80
2022/07/25 10:20:48;;;;;;;3.80;1.40;;;;;;;24.68;53.05;100842.84;4998748;28;20034;-80
2022/07/25 10:23:26;;;;;;;4.03;1.52;;;;;;;24.99;54.48;100846.44;4986135;28;20030;-79
2022/07/25 10:26:00;;;;;;;5.63;1.65;;;;;;;24.90;54.56;100849.38;4986333;28;20049;-80
2022/07/25 10:28:38;;;;;;;5.90;1.90;;;;;;;24.97;54.55;100845.84;4987125;28;20022;-80
2022/07/25 10:31:20;;;;;;;5.35;1.70;;;;;;;25.19;54.14;100841.75;4986597;28;20338;-81
2022/07/25 10:33:52;;;;;;;4.40;1.90;;;;;;;25.25;54.95;100851.50;4985626;28;20931;-82
2022/07/25 10:36:19;;;;;;;4.97;1.90;;;;;;;25.33;54.86;100834.44;4999763;28;20080;-82
2022/07/25 10:38:45;;;;;;;4.97;1.90;;;;;;;25.07;52.85;100835.56;4987493;28;20018;-81
2022/07/25 10:41:12;;;;;;;6.82;1.90;;;;;;;24.98;53.92;100839.50;4986798;28;20073;-80
2022/07/25 10:43:38;;;;;;;6.03;1.80;;;;;;;25.22;54.56;100846.63;4985286;28;20037;-79
2022/07/25 10:46:17;;;;;;;6.18;1.98;;;;;;;25.16;53.62;100858.91;4984765;28;20049;-79
2022/07/25 10:48:43;;;;;;;6.47;2.20;;;;;;;25.03;53.88;100858.22;4986245;28;20025;-79
2022/07/25 10:51:12;;;;;;;5.60;2.20;;;;;;;25.26;54.52;100858.41;5001298;28;20069;-81
2022/07/25 10:53:37;;;;;;;6.15;2.22;;;;;;;25.31;55.25;100861.22;4997574;28;20399;-79
2022/07/25 10:56:11;;;;;;;4.32;2.10;;;;;;;25.40;54.49;100865.22;5001427;28;20034;-80
2022/07/25 10:58:47;;;;;;;6.35;2.20;;;;;;;25.39;54.64;100863.56;4999544;28;20475;-79
2022/07/25 11:01:14;;;;;;;6.05;2.28;;;;;;;25.23;53.51;100863.34;4983588;28;20026;-80
2022/07/25 11:03:43;;;;;;;36.53;11.43;;;;;;;25.24;53.99;100873.78;4984964;28;20032;-81
2022/07/25 11:06:13;;;;;;;19.38;8.52;;;;;;;25.15;54.31;100861.81;4986385;28;20057;-80
2022/07/25 11:08:39;;;;;;;23.48;12.25;;;;;;;25.15;55.53;100867.13;4985845;28;20026;-82
2022/07/25 11:11:05;;;;;;;38.78;16.67;;;;;;;25.15;54.36;100867.94;5000472;28;20034;-80
2022/07/25 11:13:36;;;;;;;44.25;20.17;;;;;;;24.87;55.86;100876.31;5009034;28;20202;-80
2022/07/25 11:16:01;;;;;;;60.10;25.88;;;;;;;24.68;55.92;100864.06;4981879;28;20113;-80